Terminal Aerodrome Forecast
Issued by NWS Shreveport, LA

Home | Current Version | Previous Version | Text Only | Print | Product List | Glossary On
Versions: 1 2 3 4 5 6 7 8 9 10 11 12 13 14 15
476
FTUS44 KSHV 271746
TAFELD
TAF
KELD 271746Z 2718/2818 21012G18KT P6SM SCT030 BKN050
      TEMPO 2718/2720 BKN025
     FM280000 20010KT P6SM SKC
     FM280900 19006KT P6SM BKN020
      TEMPO 2811/2813 OVC010
     FM281500 21012KT P6SM SCT040 BKN150=

USA.gov is the U.S. government's official web portal to all federal, state and local government web resources and services.